sensor_id;sensor_type;location;lat;lon;timestamp;P1;durP1;ratioP1;P2;durP2;ratioP2
11488;SDS011;5801;50.804;12.638;2022-11-15T00:01:34;6.40;;;3.55;;
11488;SDS011;5801;50.804;12.638;2022-11-15T00:04:02;7.88;;;3.88;;
11488;SDS011;5801;50.804;12.638;2022-11-15T00:06:28;10.18;;;3.55;;
11488;SDS011;5801;50.804;12.638;2022-11-15T00:08:54;8.77;;;4.18;;
11488;SDS011;5801;50.804;12.638;2022-11-15T00:11:22;5.82;;;3.70;;
11488;SDS011;5801;50.804;12.638;2022-11-15T00:13:47;6.38;;;3.75;;
11488;SDS011;5801;50.804;12.638;2022-11-15T00:16:13;5.40;;;3.53;;
11488;SDS011;5801;50.804;12.638;2022-11-15T00:18:39;6.75;;;3.03;;
11488;SDS011;5801;50.804;12.638;2022-11-15T00:21:06;5.55;;;3.45;;
11488;SDS011;5801;50.804;12.638;2022-11-15T00:23:34;5.28;;;3.67;;
11488;SDS011;5801;50.804;12.638;2022-11-15T00:26:00;6.95;;;3.25;;
11488;SDS011;5801;50.804;12.638;2022-11-15T00:28:26;5.25;;;3.38;;
11488;SDS011;5801;50.804;12.638;2022-11-15T00:30:52;6.00;;;3.75;;
11488;SDS011;5801;50.804;12.638;2022-11-15T00:33:18;6.35;;;3.42;;
11488;SDS011;5801;50.804;12.638;2022-11-15T00:35:44;5.15;;;3.55;;
11488;SDS011;5801;50.804;12.638;2022-11-15T00:38:10;5.18;;;3.10;;
11488;SDS011;5801;50.804;12.638;2022-11-15T00:40:36;7.15;;;3.83;;
11488;SDS011;5801;50.804;12.638;2022-11-15T00:43:01;6.30;;;3.50;;
11488;SDS011;5801;50.804;12.638;2022-11-15T00:45:27;5.68;;;3.63;;
11488;SDS011;5801;50.804;12.638;2022-11-15T00:47:53;4.72;;;3.33;;
11488;SDS011;5801;50.804;12.638;2022-11-15T00:50:19;4.38;;;3.20;;
11488;SDS011;5801;50.804;12.638;2022-11-15T00:52:44;6.53;;;3.75;;
11488;SDS011;5801;50.804;12.638;2022-11-15T00:55:15;8.98;;;3.53;;
11488;SDS011;5801;50.804;12.638;2022-11-15T00:57:41;5.55;;;3.50;;
11488;SDS011;5801;50.804;12.638;2022-11-15T01:00:07;4.88;;;2.97;;
11488;SDS011;5801;50.804;12.638;2022-11-15T01:02:34;3.38;;;2.85;;
11488;SDS011;5801;50.804;12.638;2022-11-15T01:04:59;5.15;;;3.08;;
11488;SDS011;5801;50.804;12.638;2022-11-15T01:07:25;6.78;;;3.67;;
11488;SDS011;5801;50.804;12.638;2022-11-15T01:09:51;6.80;;;3.00;;
11488;SDS011;5801;50.804;12.638;2022-11-15T01:12:16;4.32;;;2.97;;
11488;SDS011;5801;50.804;12.638;2022-11-15T01:14:42;5.03;;;2.85;;
11488;SDS011;5801;50.804;12.638;2022-11-15T01:17:08;4.57;;;3.05;;
11488;SDS011;5801;50.804;12.638;2022-11-15T01:19:34;6.50;;;3.35;;
11488;SDS011;5801;50.804;12.638;2022-11-15T01:22:00;8.70;;;3.55;;
11488;SDS011;5801;50.804;12.638;2022-11-15T01:24:26;6.13;;;3.30;;
11488;SDS011;5801;50.804;12.638;2022-11-15T01:26:51;7.50;;;3.88;;
11488;SDS011;5801;50.804;12.638;2022-11-15T01:29:17;6.57;;;3.65;;
11488;SDS011;5801;50.804;12.638;2022-11-15T01:31:43;8.50;;;3.30;;
11488;SDS011;5801;50.804;12.638;2022-11-15T01:34:09;5.25;;;3.33;;
11488;SDS011;5801;50.804;12.638;2022-11-15T01:36:35;6.20;;;3.67;;
11488;SDS011;5801;50.804;12.638;2022-11-15T01:39:00;8.45;;;4.15;;
11488;SDS011;5801;50.804;12.638;2022-11-15T01:41:28;4.30;;;2.80;;
11488;SDS011;5801;50.804;12.638;2022-11-15T01:43:56;7.63;;;3.63;;
11488;SDS011;5801;50.804;12.638;2022-11-15T01:46:41;8.55;;;3.33;;
11488;SDS011;5801;50.804;12.638;2022-11-15T01:49:13;6.00;;;3.33;;
11488;SDS011;5801;50.804;12.638;2022-11-15T01:51:41;4.32;;;2.47;;
11488;SDS011;5801;50.804;12.638;2022-11-15T01:54:08;9.88;;;3.05;;
11488;SDS011;5801;50.804;12.638;2022-11-15T01:56:48;6.50;;;2.67;;
11488;SDS011;5801;50.804;12.638;2022-11-15T01:59:19;5.32;;;3.55;;
11488;SDS011;5801;50.804;12.638;2022-11-15T02:01:45;5.05;;;3.22;;
11488;SDS011;5801;50.804;12.638;2022-11-15T02:04:12;5.20;;;3.15;;
11488;SDS011;5801;50.804;12.638;2022-11-15T02:06:44;5.88;;;3.53;;
11488;SDS011;5801;50.804;12.638;2022-11-15T02:09:13;4.50;;;2.85;;
11488;SDS011;5801;50.804;12.638;2022-11-15T02:11:39;8.73;;;3.70;;
11488;SDS011;5801;50.804;12.638;2022-11-15T02:14:05;8.95;;;3.30;;
11488;SDS011;5801;50.804;12.638;2022-11-15T02:30:37;5.68;;;3.15;;
11488;SDS011;5801;50.804;12.638;2022-11-15T02:33:31;6.20;;;2.95;;
11488;SDS011;5801;50.804;12.638;2022-11-15T02:36:10;7.38;;;2.75;;
11488;SDS011;5801;50.804;12.638;2022-11-15T02:39:03;4.90;;;2.70;;
11488;SDS011;5801;50.804;12.638;2022-11-15T02:41:51;4.25;;;2.72;;
11488;SDS011;5801;50.804;12.638;2022-11-15T02:44:58;5.63;;;3.22;;
11488;SDS011;5801;50.804;12.638;2022-11-15T02:47:29;5.50;;;3.40;;
11488;SDS011;5801;50.804;12.638;2022-11-15T02:50:00;2.90;;;2.60;;
11488;SDS011;5801;50.804;12.638;2022-11-15T02:52:31;6.78;;;3.42;;
11488;SDS011;5801;50.804;12.638;2022-11-15T02:55:00;7.40;;;3.65;;
11488;SDS011;5801;50.804;12.638;2022-11-15T03:00:37;6.72;;;3.03;;
11488;SDS011;5801;50.804;12.638;2022-11-15T03:03:35;6.97;;;2.95;;
11488;SDS011;5801;50.804;12.638;2022-11-15T03:11:21;4.25;;;2.42;;
11488;SDS011;5801;50.804;12.638;2022-11-15T03:13:58;5.32;;;2.67;;
11488;SDS011;5801;50.804;12.638;2022-11-15T03:19:23;5.18;;;3.10;;
11488;SDS011;5801;50.804;12.638;2022-11-15T03:22:03;6.07;;;2.65;;
11488;SDS011;5801;50.804;12.638;2022-11-15T03:24:33;3.60;;;2.70;;
11488;SDS011;5801;50.804;12.638;2022-11-15T03:27:01;5.85;;;2.70;;
11488;SDS011;5801;50.804;12.638;2022-11-15T03:29:34;4.32;;;2.75;;
11488;SDS011;5801;50.804;12.638;2022-11-15T03:32:06;4.65;;;2.20;;
11488;SDS011;5801;50.804;12.638;2022-11-15T03:34:41;3.85;;;2.63;;
11488;SDS011;5801;50.804;12.638;2022-11-15T03:37:13;4.25;;;2.92;;
11488;SDS011;5801;50.804;12.638;2022-11-15T03:39:41;3.95;;;2.70;;
11488;SDS011;5801;50.804;12.638;2022-11-15T03:50:02;4.88;;;2.88;;
11488;SDS011;5801;50.804;12.638;2022-11-15T03:52:32;4.60;;;2.88;;
11488;SDS011;5801;50.804;12.638;2022-11-15T03:54:59;5.18;;;2.60;;
11488;SDS011;5801;50.804;12.638;2022-11-15T03:57:27;4.55;;;2.72;;
11488;SDS011;5801;50.804;12.638;2022-11-15T03:59:53;3.92;;;2.88;;
11488;SDS011;5801;50.804;12.638;2022-11-15T04:02:19;10.00;;;3.40;;
11488;SDS011;5801;50.804;12.638;2022-11-15T04:04:45;5.50;;;3.15;;
11488;SDS011;5801;50.804;12.638;2022-11-15T04:07:11;8.48;;;3.30;;
11488;SDS011;5801;50.804;12.638;2022-11-15T04:09:37;7.65;;;3.20;;
11488;SDS011;5801;50.804;12.638;2022-11-15T04:12:22;5.55;;;3.45;;
11488;SDS011;5801;50.804;12.638;2022-11-15T04:15:02;7.05;;;2.97;;
11488;SDS011;5801;50.804;12.638;2022-11-15T04:17:39;7.20;;;3.28;;
11488;SDS011;5801;50.804;12.638;2022-11-15T04:20:11;4.78;;;3.47;;
11488;SDS011;5801;50.804;12.638;2022-11-15T04:23:04;7.05;;;3.55;;
11488;SDS011;5801;50.804;12.638;2022-11-15T04:26:03;7.63;;;3.47;;
11488;SDS011;5801;50.804;12.638;2022-11-15T04:28:30;5.38;;;2.80;;
11488;SDS011;5801;50.804;12.638;2022-11-15T04:30:55;5.53;;;3.28;;
11488;SDS011;5801;50.804;12.638;2022-11-15T04:33:21;7.20;;;3.40;;
11488;SDS011;5801;50.804;12.638;2022-11-15T04:35:47;6.35;;;3.25;;
11488;SDS011;5801;50.804;12.638;2022-11-15T04:38:34;6.55;;;3.35;;
11488;SDS011;5801;50.804;12.638;2022-11-15T04:41:00;4.72;;;2.97;;
11488;SDS011;5801;50.804;12.638;2022-11-15T04:43:26;5.50;;;2.85;;
11488;SDS011;5801;50.804;12.638;2022-11-15T04:45:52;5.65;;;2.83;;
11488;SDS011;5801;50.804;12.638;2022-11-15T04:48:17;5.03;;;3.15;;
11488;SDS011;5801;50.804;12.638;2022-11-15T04:50:43;4.38;;;2.90;;
11488;SDS011;5801;50.804;12.638;2022-11-15T04:53:09;3.95;;;2.63;;
11488;SDS011;5801;50.804;12.638;2022-11-15T04:55:34;2.60;;;2.30;;
11488;SDS011;5801;50.804;12.638;2022-11-15T04:58:00;3.50;;;3.08;;
11488;SDS011;5801;50.804;12.638;2022-11-15T05:00:27;3.95;;;2.67;;
11488;SDS011;5801;50.804;12.638;2022-11-15T05:02:53;9.80;;;3.03;;
11488;SDS011;5801;50.804;12.638;2022-11-15T05:05:38;6.55;;;3.17;;
11488;SDS011;5801;50.804;12.638;2022-11-15T05:08:04;3.50;;;2.70;;
11488;SDS011;5801;50.804;12.638;2022-11-15T05:10:30;3.45;;;2.08;;
11488;SDS011;5801;50.804;12.638;2022-11-15T05:12:55;4.70;;;2.50;;
11488;SDS011;5801;50.804;12.638;2022-11-15T05:15:21;6.80;;;2.58;;
11488;SDS011;5801;50.804;12.638;2022-11-15T05:17:47;6.53;;;2.88;;
11488;SDS011;5801;50.804;12.638;2022-11-15T05:20:13;4.28;;;3.22;;
11488;SDS011;5801;50.804;12.638;2022-11-15T05:22:39;3.72;;;2.78;;
11488;SDS011;5801;50.804;12.638;2022-11-15T05:25:05;3.47;;;2.38;;
11488;SDS011;5801;50.804;12.638;2022-11-15T05:27:32;4.95;;;2.65;;
11488;SDS011;5801;50.804;12.638;2022-11-15T05:29:58;3.78;;;2.65;;
11488;SDS011;5801;50.804;12.638;2022-11-15T05:32:24;7.65;;;2.85;;
11488;SDS011;5801;50.804;12.638;2022-11-15T05:34:50;4.13;;;2.03;;
11488;SDS011;5801;50.804;12.638;2022-11-15T05:37:16;4.20;;;2.55;;
11488;SDS011;5801;50.804;12.638;2022-11-15T05:39:42;4.63;;;2.42;;
11488;SDS011;5801;50.804;12.638;2022-11-15T05:42:11;1.77;;;1.60;;
11488;SDS011;5801;50.804;12.638;2022-11-15T05:44:39;3.90;;;2.35;;
11488;SDS011;5801;50.804;12.638;2022-11-15T05:47:08;5.35;;;2.70;;
11488;SDS011;5801;50.804;12.638;2022-11-15T05:49:37;3.88;;;2.45;;
11488;SDS011;5801;50.804;12.638;2022-11-15T05:52:05;6.88;;;3.20;;
11488;SDS011;5801;50.804;12.638;2022-11-15T05:54:35;4.50;;;2.72;;
11488;SDS011;5801;50.804;12.638;2022-11-15T05:57:02;4.88;;;2.10;;
11488;SDS011;5801;50.804;12.638;2022-11-15T05:59:29;2.80;;;2.17;;
11488;SDS011;5801;50.804;12.638;2022-11-15T06:01:56;5.15;;;2.38;;
11488;SDS011;5801;50.804;12.638;2022-11-15T06:04:22;3.38;;;2.60;;
11488;SDS011;5801;50.804;12.638;2022-11-15T06:06:48;4.65;;;2.15;;
11488;SDS011;5801;50.804;12.638;2022-11-15T06:09:13;2.67;;;1.92;;
11488;SDS011;5801;50.804;12.638;2022-11-15T06:11:39;2.75;;;2.10;;
11488;SDS011;5801;50.804;12.638;2022-11-15T06:14:05;4.18;;;3.45;;
11488;SDS011;5801;50.804;12.638;2022-11-15T06:16:30;6.80;;;3.42;;
11488;SDS011;5801;50.804;12.638;2022-11-15T06:18:56;3.17;;;2.10;;
11488;SDS011;5801;50.804;12.638;2022-11-15T06:21:22;5.45;;;2.40;;
11488;SDS011;5801;50.804;12.638;2022-11-15T06:23:48;3.15;;;2.33;;
11488;SDS011;5801;50.804;12.638;2022-11-15T06:26:14;2.90;;;2.28;;
11488;SDS011;5801;50.804;12.638;2022-11-15T06:28:40;2.20;;;2.00;;
11488;SDS011;5801;50.804;12.638;2022-11-15T06:31:06;3.65;;;2.55;;
11488;SDS011;5801;50.804;12.638;2022-11-15T06:33:33;8.65;;;2.47;;
11488;SDS011;5801;50.804;12.638;2022-11-15T06:36:02;4.78;;;2.75;;
11488;SDS011;5801;50.804;12.638;2022-11-15T06:38:29;3.67;;;2.58;;
11488;SDS011;5801;50.804;12.638;2022-11-15T06:40:55;9.10;;;3.35;;
11488;SDS011;5801;50.804;12.638;2022-11-15T06:43:30;3.22;;;2.38;;
11488;SDS011;5801;50.804;12.638;2022-11-15T06:45:57;3.85;;;2.05;;
11488;SDS011;5801;50.804;12.638;2022-11-15T06:48:24;3.70;;;2.30;;
11488;SDS011;5801;50.804;12.638;2022-11-15T06:50:50;3.22;;;2.33;;
11488;SDS011;5801;50.804;12.638;2022-11-15T06:53:17;3.15;;;2.20;;
11488;SDS011;5801;50.804;12.638;2022-11-15T06:55:43;2.30;;;1.77;;
11488;SDS011;5801;50.804;12.638;2022-11-15T06:58:08;2.55;;;1.80;;
11488;SDS011;5801;50.804;12.638;2022-11-15T07:00:34;3.40;;;2.08;;
11488;SDS011;5801;50.804;12.638;2022-11-15T07:03:00;2.88;;;1.73;;
11488;SDS011;5801;50.804;12.638;2022-11-15T07:05:26;2.88;;;2.10;;
11488;SDS011;5801;50.804;12.638;2022-11-15T07:07:52;4.20;;;2.75;;
11488;SDS011;5801;50.804;12.638;2022-11-15T07:10:19;2.78;;;2.05;;
11488;SDS011;5801;50.804;12.638;2022-11-15T07:12:48;3.17;;;1.75;;
11488;SDS011;5801;50.804;12.638;2022-11-15T07:15:14;2.55;;;1.63;;
11488;SDS011;5801;50.804;12.638;2022-11-15T07:17:41;3.15;;;2.10;;
11488;SDS011;5801;50.804;12.638;2022-11-15T07:20:07;2.13;;;1.52;;
11488;SDS011;5801;50.804;12.638;2022-11-15T07:22:32;2.08;;;1.85;;
11488;SDS011;5801;50.804;12.638;2022-11-15T07:24:58;2.10;;;1.90;;
11488;SDS011;5801;50.804;12.638;2022-11-15T07:27:24;3.47;;;2.25;;
11488;SDS011;5801;50.804;12.638;2022-11-15T07:29:50;3.22;;;2.30;;
11488;SDS011;5801;50.804;12.638;2022-11-15T07:32:16;4.97;;;2.10;;
11488;SDS011;5801;50.804;12.638;2022-11-15T07:34:41;4.82;;;2.20;;
11488;SDS011;5801;50.804;12.638;2022-11-15T07:37:07;4.88;;;2.28;;
11488;SDS011;5801;50.804;12.638;2022-11-15T07:39:33;2.50;;;2.10;;
11488;SDS011;5801;50.804;12.638;2022-11-15T07:41:59;4.40;;;2.15;;
11488;SDS011;5801;50.804;12.638;2022-11-15T07:44:43;4.18;;;2.65;;
11488;SDS011;5801;50.804;12.638;2022-11-15T07:47:09;3.75;;;2.83;;
11488;SDS011;5801;50.804;12.638;2022-11-15T07:49:35;3.78;;;2.28;;
11488;SDS011;5801;50.804;12.638;2022-11-15T07:52:01;2.42;;;2.22;;
11488;SDS011;5801;50.804;12.638;2022-11-15T07:54:26;3.88;;;2.72;;
11488;SDS011;5801;50.804;12.638;2022-11-15T07:56:52;3.20;;;2.75;;
11488;SDS011;5801;50.804;12.638;2022-11-15T07:59:17;2.95;;;2.47;;
11488;SDS011;5801;50.804;12.638;2022-11-15T08:01:44;3.22;;;2.25;;
11488;SDS011;5801;50.804;12.638;2022-11-15T08:04:10;4.40;;;3.47;;
11488;SDS011;5801;50.804;12.638;2022-11-15T08:06:36;3.17;;;2.22;;
11488;SDS011;5801;50.804;12.638;2022-11-15T08:09:02;4.18;;;2.50;;
11488;SDS011;5801;50.804;12.638;2022-11-15T08:11:28;2.47;;;1.90;;
11488;SDS011;5801;50.804;12.638;2022-11-15T08:13:54;2.58;;;1.88;;
11488;SDS011;5801;50.804;12.638;2022-11-15T08:16:20;2.13;;;1.63;;
11488;SDS011;5801;50.804;12.638;2022-11-15T08:18:46;1.75;;;1.50;;
11488;SDS011;5801;50.804;12.638;2022-11-15T08:21:12;2.25;;;1.85;;
11488;SDS011;5801;50.804;12.638;2022-11-15T08:23:42;3.67;;;1.90;;
11488;SDS011;5801;50.804;12.638;2022-11-15T08:26:08;2.72;;;1.88;;
11488;SDS011;5801;50.804;12.638;2022-11-15T08:28:34;2.25;;;1.88;;
11488;SDS011;5801;50.804;12.638;2022-11-15T08:31:00;3.10;;;1.52;;
11488;SDS011;5801;50.804;12.638;2022-11-15T08:33:26;2.08;;;1.88;;
11488;SDS011;5801;50.804;12.638;2022-11-15T08:35:52;2.58;;;1.90;;
11488;SDS011;5801;50.804;12.638;2022-11-15T08:38:21;3.50;;;1.88;;
11488;SDS011;5801;50.804;12.638;2022-11-15T08:40:47;3.17;;;2.10;;
11488;SDS011;5801;50.804;12.638;2022-11-15T08:43:12;2.63;;;1.70;;
11488;SDS011;5801;50.804;12.638;2022-11-15T08:45:38;2.95;;;1.75;;
11488;SDS011;5801;50.804;12.638;2022-11-15T08:48:04;4.97;;;1.98;;
11488;SDS011;5801;50.804;12.638;2022-11-15T08:50:30;2.80;;;1.77;;
11488;SDS011;5801;50.804;12.638;2022-11-15T08:52:56;4.88;;;2.05;;
11488;SDS011;5801;50.804;12.638;2022-11-15T08:55:22;5.32;;;2.47;;
11488;SDS011;5801;50.804;12.638;2022-11-15T08:57:49;3.03;;;1.90;;
11488;SDS011;5801;50.804;12.638;2022-11-15T09:00:14;2.60;;;1.65;;
11488;SDS011;5801;50.804;12.638;2022-11-15T09:02:40;2.08;;;1.50;;
11488;SDS011;5801;50.804;12.638;2022-11-15T09:05:06;8.25;;;1.92;;
11488;SDS011;5801;50.804;12.638;2022-11-15T09:07:32;2.63;;;2.15;;
11488;SDS011;5801;50.804;12.638;2022-11-15T09:09:58;6.95;;;2.17;;
11488;SDS011;5801;50.804;12.638;2022-11-15T09:12:24;5.82;;;2.00;;
11488;SDS011;5801;50.804;12.638;2022-11-15T09:14:50;5.60;;;1.48;;
11488;SDS011;5801;50.804;12.638;2022-11-15T09:17:16;4.40;;;2.08;;
11488;SDS011;5801;50.804;12.638;2022-11-15T09:19:42;2.95;;;1.48;;
11488;SDS011;5801;50.804;12.638;2022-11-15T09:22:07;2.15;;;1.73;;
11488;SDS011;5801;50.804;12.638;2022-11-15T09:24:34;2.17;;;1.65;;
11488;SDS011;5801;50.804;12.638;2022-11-15T09:26:59;2.15;;;1.70;;
11488;SDS011;5801;50.804;12.638;2022-11-15T09:29:25;4.97;;;2.50;;
11488;SDS011;5801;50.804;12.638;2022-11-15T09:31:52;4.97;;;2.03;;
11488;SDS011;5801;50.804;12.638;2022-11-15T09:34:18;1.92;;;1.65;;
11488;SDS011;5801;50.804;12.638;2022-11-15T09:36:44;3.15;;;1.52;;
11488;SDS011;5801;50.804;12.638;2022-11-15T09:39:09;2.67;;;1.83;;
11488;SDS011;5801;50.804;12.638;2022-11-15T09:41:50;5.20;;;2.05;;
11488;SDS011;5801;50.804;12.638;2022-11-15T09:47:38;4.97;;;1.95;;
11488;SDS011;5801;50.804;12.638;2022-11-15T09:50:15;2.50;;;1.83;;
11488;SDS011;5801;50.804;12.638;2022-11-15T09:52:51;6.07;;;1.85;;
11488;SDS011;5801;50.804;12.638;2022-11-15T09:55:17;2.67;;;1.52;;
11488;SDS011;5801;50.804;12.638;2022-11-15T09:58:03;2.95;;;1.80;;
11488;SDS011;5801;50.804;12.638;2022-11-15T10:00:42;2.13;;;1.35;;
11488;SDS011;5801;50.804;12.638;2022-11-15T10:05:38;1.73;;;1.30;;
11488;SDS011;5801;50.804;12.638;2022-11-15T10:10:59;1.98;;;1.42;;
11488;SDS011;5801;50.804;12.638;2022-11-15T10:13:31;2.25;;;1.33;;
11488;SDS011;5801;50.804;12.638;2022-11-15T10:16:04;2.08;;;1.45;;
11488;SDS011;5801;50.804;12.638;2022-11-15T10:21:17;3.65;;;1.60;;
11488;SDS011;5801;50.804;12.638;2022-11-15T10:23:45;2.65;;;1.20;;
11488;SDS011;5801;50.804;12.638;2022-11-15T10:26:11;2.55;;;1.65;;
11488;SDS011;5801;50.804;12.638;2022-11-15T10:28:40;2.95;;;1.30;;
11488;SDS011;5801;50.804;12.638;2022-11-15T10:31:21;3.55;;;1.42;;
11488;SDS011;5801;50.804;12.638;2022-11-15T10:33:50;1.98;;;1.52;;
11488;SDS011;5801;50.804;12.638;2022-11-15T10:36:17;2.90;;;1.30;;
11488;SDS011;5801;50.804;12.638;2022-11-15T10:41:14;2.33;;;1.52;;
11488;SDS011;5801;50.804;12.638;2022-11-15T10:43:43;1.35;;;1.17;;
11488;SDS011;5801;50.804;12.638;2022-11-15T10:46:22;2.30;;;1.65;;
11488;SDS011;5801;50.804;12.638;2022-11-15T10:48:49;1.98;;;1.20;;
11488;SDS011;5801;50.804;12.638;2022-11-15T10:51:22;4.18;;;1.40;;
11488;SDS011;5801;50.804;12.638;2022-11-15T10:53:54;2.72;;;1.20;;
11488;SDS011;5801;50.804;12.638;2022-11-15T10:56:22;5.07;;;1.45;;
11488;SDS011;5801;50.804;12.638;2022-11-15T10:58:51;1.60;;;1.10;;
11488;SDS011;5801;50.804;12.638;2022-11-15T11:01:20;2.13;;;1.30;;
11488;SDS011;5801;50.804;12.638;2022-11-15T11:04:02;1.60;;;1.15;;
11488;SDS011;5801;50.804;12.638;2022-11-15T11:06:50;1.38;;;1.10;;
11488;SDS011;5801;50.804;12.638;2022-11-15T11:11:50;3.08;;;1.20;;
11488;SDS011;5801;50.804;12.638;2022-11-15T11:16:58;1.45;;;1.10;;
11488;SDS011;5801;50.804;12.638;2022-11-15T11:19:35;2.08;;;1.40;;
11488;SDS011;5801;50.804;12.638;2022-11-15T11:24:55;2.45;;;1.50;;
11488;SDS011;5801;50.804;12.638;2022-11-15T11:27:31;1.77;;;1.40;;
11488;SDS011;5801;50.804;12.638;2022-11-15T11:30:32;3.50;;;1.35;;
11488;SDS011;5801;50.804;12.638;2022-11-15T11:33:16;3.30;;;1.15;;
11488;SDS011;5801;50.804;12.638;2022-11-15T11:35:50;2.92;;;1.15;;
11488;SDS011;5801;50.804;12.638;2022-11-15T11:38:44;2.08;;;1.15;;
11488;SDS011;5801;50.804;12.638;2022-11-15T11:49:56;3.83;;;1.20;;
11488;SDS011;5801;50.804;12.638;2022-11-15T11:52:27;2.80;;;1.30;;
11488;SDS011;5801;50.804;12.638;2022-11-15T11:55:15;1.00;;;0.95;;
11488;SDS011;5801;50.804;12.638;2022-11-15T11:58:04;3.50;;;1.00;;
11488;SDS011;5801;50.804;12.638;2022-11-15T12:05:54;1.55;;;1.10;;
11488;SDS011;5801;50.804;12.638;2022-11-15T12:08:35;5.15;;;1.30;;
11488;SDS011;5801;50.804;12.638;2022-11-15T12:13:36;2.65;;;1.20;;
11488;SDS011;5801;50.804;12.638;2022-11-15T12:16:10;1.98;;;0.73;;
11488;SDS011;5801;50.804;12.638;2022-11-15T12:18:37;1.48;;;1.02;;
11488;SDS011;5801;50.804;12.638;2022-11-15T12:24:17;3.55;;;1.02;;
11488;SDS011;5801;50.804;12.638;2022-11-15T12:26:51;3.83;;;1.00;;
11488;SDS011;5801;50.804;12.638;2022-11-15T12:29:25;1.05;;;0.95;;
11488;SDS011;5801;50.804;12.638;2022-11-15T12:31:58;1.05;;;0.95;;
11488;SDS011;5801;50.804;12.638;2022-11-15T12:36:54;1.58;;;1.20;;
11488;SDS011;5801;50.804;12.638;2022-11-15T12:39:20;2.40;;;1.15;;
11488;SDS011;5801;50.804;12.638;2022-11-15T12:59:50;1.50;;;1.10;;
11488;SDS011;5801;50.804;12.638;2022-11-15T13:02:32;1.20;;;1.10;;
11488;SDS011;5801;50.804;12.638;2022-11-15T13:22:52;1.55;;;1.00;;
11488;SDS011;5801;50.804;12.638;2022-11-15T13:33:13;1.17;;;1.05;;
11488;SDS011;5801;50.804;12.638;2022-11-15T13:35:41;1.65;;;1.20;;
11488;SDS011;5801;50.804;12.638;2022-11-15T13:38:17;2.38;;;0.90;;
11488;SDS011;5801;50.804;12.638;2022-11-15T13:40:49;1.80;;;0.98;;
11488;SDS011;5801;50.804;12.638;2022-11-15T13:46:05;2.58;;;1.58;;
11488;SDS011;5801;50.804;12.638;2022-11-15T13:48:34;1.38;;;1.10;;
11488;SDS011;5801;50.804;12.638;2022-11-15T13:51:01;1.77;;;1.33;;
11488;SDS011;5801;50.804;12.638;2022-11-15T13:53:31;2.10;;;1.27;;
11488;SDS011;5801;50.804;12.638;2022-11-15T13:55:58;3.63;;;1.20;;
11488;SDS011;5801;50.804;12.638;2022-11-15T13:58:24;3.80;;;1.23;;
11488;SDS011;5801;50.804;12.638;2022-11-15T14:00:58;1.25;;;1.15;;
11488;SDS011;5801;50.804;12.638;2022-11-15T14:03:26;2.13;;;1.33;;
11488;SDS011;5801;50.804;12.638;2022-11-15T14:08:42;3.92;;;1.83;;
11488;SDS011;5801;50.804;12.638;2022-11-15T14:11:23;3.80;;;1.63;;
11488;SDS011;5801;50.804;12.638;2022-11-15T14:16:43;3.35;;;1.73;;
11488;SDS011;5801;50.804;12.638;2022-11-15T14:19:12;5.47;;;1.50;;
11488;SDS011;5801;50.804;12.638;2022-11-15T14:24:37;1.52;;;1.35;;
11488;SDS011;5801;50.804;12.638;2022-11-15T14:27:16;2.00;;;1.30;;
11488;SDS011;5801;50.804;12.638;2022-11-15T14:29:54;2.55;;;1.33;;
11488;SDS011;5801;50.804;12.638;2022-11-15T14:32:24;2.47;;;2.13;;
11488;SDS011;5801;50.804;12.638;2022-11-15T14:34:56;2.55;;;1.60;;
11488;SDS011;5801;50.804;12.638;2022-11-15T14:37:26;7.72;;;1.60;;
11488;SDS011;5801;50.804;12.638;2022-11-15T14:39:59;6.25;;;1.30;;
11488;SDS011;5801;50.804;12.638;2022-11-15T14:42:25;2.95;;;1.45;;
11488;SDS011;5801;50.804;12.638;2022-11-15T14:44:51;1.80;;;1.65;;
11488;SDS011;5801;50.804;12.638;2022-11-15T14:47:17;3.92;;;1.58;;
11488;SDS011;5801;50.804;12.638;2022-11-15T14:49:44;2.72;;;1.50;;
11488;SDS011;5801;50.804;12.638;2022-11-15T14:52:29;5.97;;;1.52;;
11488;SDS011;5801;50.804;12.638;2022-11-15T14:54:58;3.30;;;1.50;;
11488;SDS011;5801;50.804;12.638;2022-11-15T14:57:26;3.53;;;1.40;;
11488;SDS011;5801;50.804;12.638;2022-11-15T14:59:52;2.03;;;1.35;;
11488;SDS011;5801;50.804;12.638;2022-11-15T15:02:19;1.70;;;1.50;;
11488;SDS011;5801;50.804;12.638;2022-11-15T15:04:49;2.63;;;2.10;;
11488;SDS011;5801;50.804;12.638;2022-11-15T15:07:15;6.63;;;4.55;;
11488;SDS011;5801;50.804;12.638;2022-11-15T15:09:42;3.17;;;2.83;;
11488;SDS011;5801;50.804;12.638;2022-11-15T15:12:13;5.82;;;3.22;;
11488;SDS011;5801;50.804;12.638;2022-11-15T15:14:48;2.97;;;2.67;;
11488;SDS011;5801;50.804;12.638;2022-11-15T15:17:15;6.97;;;2.90;;
11488;SDS011;5801;50.804;12.638;2022-11-15T15:19:41;3.58;;;2.60;;
11488;SDS011;5801;50.804;12.638;2022-11-15T15:22:09;4.47;;;2.83;;
11488;SDS011;5801;50.804;12.638;2022-11-15T15:24:38;4.15;;;2.83;;
11488;SDS011;5801;50.804;12.638;2022-11-15T15:27:04;9.45;;;5.72;;
11488;SDS011;5801;50.804;12.638;2022-11-15T15:29:30;9.18;;;5.63;;
11488;SDS011;5801;50.804;12.638;2022-11-15T15:31:56;14.25;;;5.25;;
11488;SDS011;5801;50.804;12.638;2022-11-15T15:34:22;6.05;;;3.38;;
11488;SDS011;5801;50.804;12.638;2022-11-15T15:36:48;3.15;;;2.85;;
11488;SDS011;5801;50.804;12.638;2022-11-15T15:39:13;4.65;;;2.78;;
11488;SDS011;5801;50.804;12.638;2022-11-15T15:41:40;7.90;;;4.38;;
11488;SDS011;5801;50.804;12.638;2022-11-15T15:44:06;7.13;;;5.18;;
11488;SDS011;5801;50.804;12.638;2022-11-15T15:46:31;5.97;;;3.92;;
11488;SDS011;5801;50.804;12.638;2022-11-15T15:48:58;9.40;;;4.63;;
11488;SDS011;5801;50.804;12.638;2022-11-15T15:51:24;7.97;;;4.80;;
11488;SDS011;5801;50.804;12.638;2022-11-15T15:53:50;6.68;;;4.28;;
11488;SDS011;5801;50.804;12.638;2022-11-15T15:56:17;8.18;;;5.75;;
11488;SDS011;5801;50.804;12.638;2022-11-15T15:58:43;6.55;;;5.15;;
11488;SDS011;5801;50.804;12.638;2022-11-15T16:01:09;7.90;;;5.07;;
11488;SDS011;5801;50.804;12.638;2022-11-15T16:03:34;5.25;;;4.70;;
11488;SDS011;5801;50.804;12.638;2022-11-15T16:06:00;8.27;;;5.85;;
11488;SDS011;5801;50.804;12.638;2022-11-15T16:08:29;12.93;;;8.73;;
11488;SDS011;5801;50.804;12.638;2022-11-15T16:10:55;13.88;;;9.57;;
11488;SDS011;5801;50.804;12.638;2022-11-15T16:13:20;6.70;;;5.00;;
11488;SDS011;5801;50.804;12.638;2022-11-15T16:15:47;6.38;;;4.35;;
11488;SDS011;5801;50.804;12.638;2022-11-15T16:18:17;6.68;;;4.32;;
11488;SDS011;5801;50.804;12.638;2022-11-15T16:23:13;4.20;;;3.13;;
11488;SDS011;5801;50.804;12.638;2022-11-15T16:25:46;6.47;;;4.00;;
11488;SDS011;5801;50.804;12.638;2022-11-15T16:30:43;7.63;;;4.45;;
11488;SDS011;5801;50.804;12.638;2022-11-15T16:33:09;6.72;;;4.32;;
11488;SDS011;5801;50.804;12.638;2022-11-15T16:35:34;9.48;;;3.72;;
11488;SDS011;5801;50.804;12.638;2022-11-15T16:38:00;5.75;;;3.47;;
11488;SDS011;5801;50.804;12.638;2022-11-15T16:40:35;6.20;;;3.88;;
11488;SDS011;5801;50.804;12.638;2022-11-15T16:43:00;6.57;;;3.50;;
11488;SDS011;5801;50.804;12.638;2022-11-15T16:45:28;5.53;;;3.78;;
11488;SDS011;5801;50.804;12.638;2022-11-15T16:47:55;4.90;;;3.78;;
11488;SDS011;5801;50.804;12.638;2022-11-15T16:50:22;10.95;;;3.17;;
11488;SDS011;5801;50.804;12.638;2022-11-15T16:52:53;4.25;;;3.10;;
11488;SDS011;5801;50.804;12.638;2022-11-15T16:55:20;6.70;;;4.40;;
11488;SDS011;5801;50.804;12.638;2022-11-15T16:57:47;9.43;;;5.47;;
11488;SDS011;5801;50.804;12.638;2022-11-15T17:00:13;9.05;;;5.55;;
11488;SDS011;5801;50.804;12.638;2022-11-15T17:02:44;10.57;;;6.30;;
11488;SDS011;5801;50.804;12.638;2022-11-15T17:05:11;10.18;;;6.03;;
11488;SDS011;5801;50.804;12.638;2022-11-15T17:07:38;10.27;;;6.93;;
11488;SDS011;5801;50.804;12.638;2022-11-15T17:10:04;10.15;;;7.55;;
11488;SDS011;5801;50.804;12.638;2022-11-15T17:12:31;10.93;;;6.65;;
11488;SDS011;5801;50.804;12.638;2022-11-15T17:14:57;7.82;;;5.20;;
11488;SDS011;5801;50.804;12.638;2022-11-15T17:17:23;8.00;;;5.07;;